createdAt,value
2018-12-16T00:00:04.641Z,9.98
2018-12-16T00:10:56.662Z,9.93
2018-12-16T00:13:24.213Z,10.80
2018-12-16T00:15:51.581Z,10.28
2018-12-16T00:18:18.906Z,9.98
2018-12-16T00:20:46.391Z,10.08
2018-12-16T00:23:13.744Z,9.83
2018-12-16T00:25:41.984Z,11.55
2018-12-16T00:28:10.086Z,10.75
2018-12-16T00:30:37.689Z,10.40
2018-12-16T00:33:05.731Z,12.23
2018-12-16T00:35:33.220Z,8.70
2018-12-16T00:38:00.624Z,10.72
2018-12-16T00:40:29.052Z,10.18
2018-12-16T00:42:56.362Z,9.33
2018-12-16T00:48:17.276Z,11.30
2018-12-16T00:50:44.694Z,12.15
2018-12-16T00:53:19.047Z,10.32
2018-12-16T00:55:46.436Z,10.13
2018-12-16T00:58:13.982Z,11.60
2018-12-16T01:00:41.346Z,10.23
2018-12-16T01:03:09.589Z,11.18
2018-12-16T01:14:02.793Z,9.20
2018-12-16T01:16:37.530Z,10.28
2018-12-16T01:19:05.045Z,10.85
2018-12-16T01:21:32.529Z,11.00
2018-12-16T01:23:59.843Z,10.72
2018-12-16T01:26:27.650Z,11.10
2018-12-16T01:28:55.261Z,11.18
2018-12-16T01:31:22.825Z,11.50
2018-12-16T01:33:50.532Z,11.45
2018-12-16T01:39:08.956Z,12.00
2018-12-16T01:41:36.324Z,11.12
2018-12-16T01:44:09.007Z,11.15
2018-12-16T01:46:36.372Z,9.75
2018-12-16T01:49:04.706Z,11.00
2018-12-16T01:51:32.288Z,11.65
2018-12-16T01:53:59.791Z,11.33
2018-12-16T01:56:27.124Z,10.23
2018-12-16T01:58:54.530Z,12.70
2018-12-16T02:01:21.880Z,11.48
2018-12-16T02:03:57.519Z,9.65
2018-12-16T02:06:24.942Z,10.68
2018-12-16T02:08:59.668Z,10.05
2018-12-16T02:11:27.009Z,11.55
2018-12-16T02:13:56.265Z,10.45
2018-12-16T02:16:23.634Z,11.38
2018-12-16T02:18:51.065Z,10.50
2018-12-16T02:21:18.392Z,11.10
2018-12-16T02:23:45.857Z,11.55
2018-12-16T02:26:14.132Z,11.78
2018-12-16T02:28:42.284Z,11.08
2018-12-16T02:31:09.621Z,11.73
2018-12-16T02:33:38.111Z,10.98
2018-12-16T02:36:05.456Z,11.53
2018-12-16T02:38:38.774Z,11.33
2018-12-16T02:41:06.152Z,11.85
2018-12-16T02:43:33.486Z,10.70
2018-12-16T02:46:01.058Z,11.12
2018-12-16T02:48:28.428Z,11.80
2018-12-16T02:58:17.474Z,12.00
2018-12-16T03:00:44.808Z,11.20
2018-12-16T03:03:15.116Z,11.45
2018-12-16T03:05:42.489Z,12.07
2018-12-16T03:08:15.581Z,11.25
2018-12-16T03:10:42.901Z,11.53
2018-12-16T03:13:11.330Z,11.25
2018-12-16T03:15:39.237Z,12.18
2018-12-16T03:18:06.661Z,11.05
2018-12-16T03:20:35.183Z,11.53
2018-12-16T03:23:03.209Z,13.18
2018-12-16T03:28:17.751Z,12.40
2018-12-16T03:30:45.185Z,13.80
2018-12-16T03:33:12.795Z,11.90
2018-12-16T03:35:40.209Z,13.18
2018-12-16T03:38:07.665Z,12.00
2018-12-16T03:40:35.088Z,12.58
2018-12-16T03:43:02.492Z,13.78
2018-12-16T03:45:29.887Z,12.70
2018-12-16T03:48:00.646Z,10.05
2018-12-16T03:50:28.068Z,13.10
2018-12-16T03:52:55.492Z,12.47
2018-12-16T03:58:15.132Z,13.38
2018-12-16T04:00:46.525Z,13.85
2018-12-16T04:03:13.859Z,12.15
2018-12-16T04:05:42.151Z,11.38
2018-12-16T04:08:09.476Z,11.57
2018-12-16T04:10:36.863Z,12.15
2018-12-16T04:13:04.270Z,11.25
2018-12-16T04:15:32.712Z,12.95
2018-12-16T04:18:00.069Z,11.95
2018-12-16T04:20:33.016Z,12.07
2018-12-16T04:23:00.418Z,12.43
2018-12-16T04:28:17.350Z,12.80
2018-12-16T04:30:44.887Z,11.55
2018-12-16T04:33:12.388Z,11.80
2018-12-16T04:35:39.833Z,12.78
2018-12-16T04:38:07.206Z,12.55
2018-12-16T04:40:38.256Z,10.30
2018-12-16T04:43:05.674Z,11.53
2018-12-16T04:45:33.193Z,10.93
2018-12-16T04:48:00.484Z,11.55
2018-12-16T04:50:31.756Z,12.10
2018-12-16T04:52:59.106Z,12.35
2018-12-16T04:55:26.577Z,12.20
2018-12-16T04:57:54.028Z,12.23
2018-12-16T05:00:24.242Z,11.57
2018-12-16T05:02:51.587Z,13.30
2018-12-16T05:05:19.035Z,11.83
2018-12-16T05:07:47.377Z,10.78
2018-12-16T05:10:22.458Z,11.00
2018-12-16T05:12:49.822Z,11.97
2018-12-16T05:15:17.243Z,12.78
2018-12-16T05:17:44.546Z,11.05
2018-12-16T05:20:11.886Z,11.97
2018-12-16T05:22:39.295Z,12.05
2018-12-16T05:25:07.546Z,11.12
2018-12-16T05:27:34.918Z,11.48
2018-12-16T05:32:48.161Z,12.60
2018-12-16T05:35:26.333Z,11.30
2018-12-16T05:37:53.730Z,12.05
2018-12-16T05:40:21.145Z,12.25
2018-12-16T05:42:48.452Z,12.00
2018-12-16T05:45:15.846Z,10.40
2018-12-16T05:47:43.228Z,11.97
2018-12-16T05:50:10.844Z,11.68
2018-12-16T05:52:38.155Z,12.33
2018-12-16T05:55:05.584Z,12.10
2018-12-16T05:57:32.943Z,12.40
2018-12-16T06:08:24.855Z,12.23
2018-12-16T06:10:58.386Z,11.93
2018-12-16T06:13:25.733Z,12.18
2018-12-16T06:15:53.137Z,10.78
2018-12-16T06:18:24.588Z,10.15
2018-12-16T06:20:51.917Z,10.18
2018-12-16T06:23:19.303Z,11.45
2018-12-16T06:25:50.267Z,12.82
2018-12-16T06:28:17.578Z,12.37
2018-12-16T06:33:31.846Z,12.05
2018-12-16T06:35:59.128Z,12.47
2018-12-16T06:38:26.545Z,12.28
2018-12-16T06:40:53.846Z,12.68
2018-12-16T06:43:21.179Z,11.75
2018-12-16T06:45:52.621Z,12.60
2018-12-16T06:48:20.041Z,13.15
2018-12-16T06:50:47.431Z,12.00
2018-12-16T06:53:20.261Z,12.05
2018-12-16T06:55:50.167Z,12.58
2018-12-16T06:58:17.759Z,13.40
2018-12-16T07:03:34.308Z,15.23
2018-12-16T07:06:02.182Z,13.55
2018-12-16T07:08:29.772Z,13.15
2018-12-16T07:10:57.234Z,12.35
2018-12-16T07:13:24.755Z,14.05
2018-12-16T07:15:52.734Z,12.93
2018-12-16T07:18:20.065Z,13.60
2018-12-16T07:20:47.382Z,14.40
2018-12-16T07:23:14.868Z,15.10
2018-12-16T07:25:42.212Z,13.68
2018-12-16T07:28:09.656Z,16.62
2018-12-16T07:30:39.246Z,15.65
2018-12-16T07:33:06.772Z,14.75
2018-12-16T07:35:36.224Z,14.43
2018-12-16T07:38:03.574Z,16.12
2018-12-16T07:40:31.071Z,16.82
2018-12-16T07:42:58.366Z,14.60
2018-12-16T07:45:25.726Z,14.45
2018-12-16T07:47:53.077Z,15.88
2018-12-16T07:50:36.691Z,15.08
2018-12-16T07:53:03.988Z,16.48
2018-12-16T07:55:32.356Z,17.00
2018-12-16T07:57:59.624Z,16.30
2018-12-16T08:00:27.537Z,17.02
2018-12-16T08:02:54.869Z,15.25
2018-12-16T08:05:22.112Z,16.73
2018-12-16T08:07:55.533Z,18.15
2018-12-16T08:10:22.890Z,14.50
2018-12-16T08:12:50.223Z,15.10
2018-12-16T08:15:35.671Z,15.72
2018-12-16T08:18:02.996Z,15.95
2018-12-16T08:20:39.991Z,16.85
2018-12-16T08:23:07.365Z,16.40
2018-12-16T08:25:34.644Z,16.07
2018-12-16T08:28:02.081Z,14.43
2018-12-16T08:30:29.417Z,16.40
2018-12-16T08:33:07.018Z,17.50
2018-12-16T08:35:34.316Z,15.25
2018-12-16T08:40:38.353Z,16.60
2018-12-16T08:43:05.747Z,19.52
2018-12-16T08:45:41.117Z,15.30
2018-12-16T08:48:08.516Z,17.35
2018-12-16T08:50:35.912Z,18.30
2018-12-16T08:53:03.209Z,17.23
2018-12-16T08:55:30.627Z,17.65
2018-12-16T08:57:57.872Z,18.07
2018-12-16T09:00:25.177Z,17.20
2018-12-16T09:02:52.600Z,16.52
2018-12-16T09:05:19.908Z,17.02
2018-12-16T09:07:47.284Z,17.50
2018-12-16T09:18:39.717Z,17.12
2018-12-16T09:21:07.064Z,16.42
2018-12-16T09:23:35.498Z,16.90
2018-12-16T09:26:02.798Z,17.48
2018-12-16T09:28:30.134Z,17.85
2018-12-16T09:31:11.057Z,18.55
2018-12-16T09:33:38.348Z,16.48
2018-12-16T09:36:12.885Z,16.02
2018-12-16T09:38:46.294Z,15.65
2018-12-16T09:41:13.601Z,16.45
2018-12-16T09:43:43.900Z,18.32
2018-12-16T09:46:11.184Z,16.73
2018-12-16T09:48:38.557Z,15.30
2018-12-16T09:51:05.899Z,14.87
2018-12-16T09:53:33.236Z,16.42
2018-12-16T09:56:04.036Z,16.50
2018-12-16T09:58:32.150Z,16.23
2018-12-16T10:00:59.837Z,16.48
2018-12-16T10:03:30.776Z,17.92
2018-12-16T10:05:58.557Z,15.00
2018-12-16T10:08:26.966Z,17.48
2018-12-16T10:10:58.400Z,17.20
2018-12-16T10:13:25.705Z,15.20
2018-12-16T10:15:52.993Z,15.13
2018-12-16T10:18:24.144Z,17.35
2018-12-16T10:20:51.492Z,16.00
2018-12-16T10:23:18.837Z,15.20
2018-12-16T10:25:50.026Z,15.93
2018-12-16T10:28:17.343Z,16.23
2018-12-16T10:30:44.635Z,15.78
2018-12-16T10:33:11.985Z,19.65
2018-12-16T10:35:43.093Z,19.60
2018-12-16T10:38:10.461Z,18.27
2018-12-16T10:40:37.814Z,17.05
2018-12-16T10:43:06.263Z,15.50
2018-12-16T10:45:33.716Z,15.80
2018-12-16T10:48:01.197Z,15.70
2018-12-16T10:53:14.499Z,16.23
2018-12-16T10:55:41.850Z,15.58
2018-12-16T10:58:16.360Z,14.60
2018-12-16T11:00:49.790Z,14.47
2018-12-16T11:03:17.157Z,16.27
2018-12-16T11:05:44.712Z,14.90
2018-12-16T11:08:12.085Z,15.80
2018-12-16T11:10:40.535Z,16.10
2018-12-16T11:13:17.701Z,13.83
2018-12-16T11:15:45.889Z,15.32
2018-12-16T11:18:13.296Z,14.90
2018-12-16T11:20:50.676Z,13.38
2018-12-16T11:23:27.180Z,15.15
2018-12-16T11:25:57.743Z,14.80
2018-12-16T11:28:27.032Z,15.10
2018-12-16T11:30:59.702Z,14.60
2018-12-16T11:33:27.056Z,13.93
2018-12-16T11:36:04.040Z,14.78
2018-12-16T11:38:31.395Z,16.35
2018-12-16T11:43:45.072Z,14.20
2018-12-16T11:46:12.459Z,14.78
2018-12-16T11:48:39.996Z,13.90
2018-12-16T11:51:08.373Z,16.35
2018-12-16T11:53:37.890Z,13.88
2018-12-16T11:56:09.263Z,17.75
2018-12-16T11:58:36.636Z,15.65
2018-12-16T12:01:04.060Z,15.05
2018-12-16T12:03:31.547Z,15.03
2018-12-16T12:06:04.444Z,14.63
2018-12-16T12:08:31.840Z,15.93
2018-12-16T12:10:59.236Z,15.45
2018-12-16T12:13:26.685Z,14.55
2018-12-16T12:15:54.147Z,16.17
2018-12-16T12:18:22.989Z,13.93
2018-12-16T12:20:51.910Z,16.87
2018-12-16T12:23:19.271Z,17.65
2018-12-16T12:25:47.046Z,15.38
2018-12-16T12:28:14.592Z,13.62
2018-12-16T12:30:46.595Z,15.58
2018-12-16T12:33:18.949Z,17.15
2018-12-16T12:35:46.352Z,16.20
2018-12-16T12:38:15.816Z,17.75
2018-12-16T12:40:43.779Z,14.70
2018-12-16T12:43:11.341Z,17.67
2018-12-16T12:45:56.826Z,15.60
2018-12-16T12:48:25.178Z,15.85
2018-12-16T12:50:53.172Z,15.43
2018-12-16T12:53:20.561Z,16.10
2018-12-16T12:55:49.119Z,14.85
2018-12-16T12:58:16.503Z,14.68
2018-12-16T13:00:43.923Z,17.15
2018-12-16T13:03:12.071Z,20.90
2018-12-16T13:05:39.547Z,17.48
2018-12-16T13:08:06.946Z,15.18
2018-12-16T13:10:34.279Z,14.68
2018-12-16T13:13:01.691Z,17.50
2018-12-16T13:15:29.239Z,16.23
2018-12-16T13:17:56.645Z,14.45
2018-12-16T13:20:24.058Z,15.32
2018-12-16T13:22:57.191Z,15.13
2018-12-16T13:25:33.971Z,15.68
2018-12-16T13:27:59.726Z,15.85
2018-12-16T13:30:27.138Z,14.53
2018-12-16T13:32:54.511Z,15.65
2018-12-16T13:35:30.241Z,15.28
2018-12-16T13:38:02.033Z,15.95
2018-12-16T13:40:29.342Z,14.95
2018-12-16T13:42:56.713Z,15.55
2018-12-16T13:45:24.161Z,15.23
2018-12-16T13:47:51.462Z,16.57
2018-12-16T13:50:18.838Z,14.03
2018-12-16T13:52:46.159Z,16.12
2018-12-16T13:55:13.569Z,17.10
2018-12-16T13:57:41.834Z,16.02
2018-12-16T14:00:09.310Z,15.63
2018-12-16T14:02:50.022Z,16.50
2018-12-16T14:05:17.544Z,14.55
2018-12-16T14:07:44.926Z,16.05
2018-12-16T14:10:15.836Z,16.50
2018-12-16T14:12:43.172Z,17.07
2018-12-16T14:18:02.727Z,15.60
2018-12-16T14:20:30.105Z,16.23
2018-12-16T14:22:57.446Z,16.55
2018-12-16T14:25:24.781Z,15.15
2018-12-16T14:27:52.088Z,20.32
2018-12-16T14:30:21.556Z,16.00
2018-12-16T14:32:48.862Z,19.02
2018-12-16T14:35:16.687Z,16.62
2018-12-16T14:37:44.210Z,16.00
2018-12-16T14:40:17.192Z,15.85
2018-12-16T14:42:44.491Z,16.17
2018-12-16T14:45:11.973Z,18.55
2018-12-16T14:47:39.302Z,16.65
2018-12-16T14:50:08.020Z,15.80
2018-12-16T14:52:35.368Z,17.80
2018-12-16T14:55:02.845Z,16.55
2018-12-16T14:57:30.174Z,16.15
2018-12-16T14:59:57.853Z,15.53
2018-12-16T15:02:25.355Z,14.55
2018-12-16T15:04:54.243Z,15.25
2018-12-16T15:07:21.804Z,15.98
2018-12-16T15:09:49.185Z,15.68
2018-12-16T15:12:16.562Z,17.02
2018-12-16T15:14:43.973Z,15.60
2018-12-16T15:17:11.371Z,12.90
2018-12-16T15:19:38.740Z,16.05
2018-12-16T15:22:06.076Z,13.65
2018-12-16T15:24:33.450Z,15.03
2018-12-16T15:27:00.788Z,13.35
2018-12-16T15:29:28.128Z,15.08
2018-12-16T15:31:55.519Z,13.85
2018-12-16T15:34:22.825Z,15.80
2018-12-16T15:36:50.151Z,13.58
2018-12-16T15:39:17.631Z,14.05
2018-12-16T15:41:45.000Z,13.40
2018-12-16T15:44:14.443Z,14.93
2018-12-16T15:46:45.315Z,16.20
2018-12-16T15:49:12.605Z,15.53
2018-12-16T15:51:39.933Z,14.93
2018-12-16T15:54:07.229Z,15.00
2018-12-16T15:56:34.608Z,13.95
2018-12-16T15:59:01.960Z,15.13
2018-12-16T16:01:29.368Z,16.10
2018-12-16T16:03:56.674Z,17.25
2018-12-16T16:06:24.037Z,17.05
2018-12-16T16:08:51.381Z,17.90
2018-12-16T16:11:22.363Z,15.35
2018-12-16T16:13:49.788Z,17.90
2018-12-16T16:16:20.431Z,19.20
2018-12-16T16:18:47.881Z,22.42
2018-12-16T16:21:15.201Z,20.85
2018-12-16T16:23:42.614Z,20.02
2018-12-16T16:26:16.062Z,19.30
2018-12-16T16:28:40.061Z,20.85
2018-12-16T16:31:17.530Z,18.77
2018-12-16T16:33:44.815Z,18.25
2018-12-16T16:36:12.176Z,16.75
2018-12-16T16:38:39.542Z,17.35
2018-12-16T16:41:07.097Z,15.80
2018-12-16T16:43:34.495Z,17.95
2018-12-16T16:46:01.805Z,16.90
2018-12-16T16:48:29.280Z,15.60
2018-12-16T16:50:56.601Z,16.95
2018-12-16T16:53:24.247Z,18.65
2018-12-16T16:55:51.549Z,16.15
2018-12-16T16:58:18.912Z,16.07
2018-12-16T17:00:46.387Z,14.80
2018-12-16T17:03:13.738Z,15.88
2018-12-16T17:05:41.309Z,15.45
2018-12-16T17:08:08.613Z,16.85
2018-12-16T17:10:35.974Z,16.35
2018-12-16T17:13:03.297Z,14.87
2018-12-16T17:18:16.550Z,17.95
2018-12-16T17:26:18.262Z,19.00
2018-12-16T17:28:45.742Z,18.17
2018-12-16T17:31:14.071Z,19.85
2018-12-16T17:33:45.280Z,19.23
2018-12-16T17:36:13.711Z,16.73
2018-12-16T17:38:41.154Z,16.27
2018-12-16T17:41:08.484Z,15.18
2018-12-16T17:43:35.868Z,14.93
2018-12-16T17:46:04.798Z,16.57
2018-12-16T17:48:32.133Z,15.10
2018-12-16T17:50:59.498Z,16.05
2018-12-16T17:53:26.811Z,16.02
2018-12-16T17:55:54.261Z,18.23
2018-12-16T17:58:21.610Z,17.48
2018-12-16T18:00:49.010Z,16.52
2018-12-16T18:03:16.486Z,16.82
2018-12-16T18:05:53.973Z,16.77
2018-12-16T18:08:21.517Z,21.02
2018-12-16T18:10:48.903Z,21.60
2018-12-16T18:13:16.371Z,20.48
2018-12-16T18:15:45.889Z,17.65
2018-12-16T18:18:13.623Z,16.87
2018-12-16T18:20:41.038Z,18.60
2018-12-16T18:23:08.558Z,20.60
2018-12-16T18:25:36.046Z,18.77
2018-12-16T18:28:03.634Z,19.20
2018-12-16T18:30:35.338Z,18.17
2018-12-16T18:33:03.041Z,16.90
2018-12-16T18:35:30.422Z,17.73
2018-12-16T18:38:01.939Z,19.67
2018-12-16T18:40:30.011Z,19.32
2018-12-16T18:42:57.531Z,17.55
2018-12-16T18:45:25.738Z,18.65
2018-12-16T18:47:53.185Z,16.65
2018-12-16T18:50:20.865Z,16.40
2018-12-16T18:52:48.366Z,16.60
2018-12-16T18:55:16.768Z,16.95
2018-12-16T19:03:27.636Z,16.87
2018-12-16T19:05:59.432Z,17.87
2018-12-16T19:08:27.228Z,17.05
2018-12-16T19:10:54.766Z,17.67
2018-12-16T19:13:23.080Z,17.35
2018-12-16T19:15:52.534Z,18.62
2018-12-16T19:18:20.842Z,17.77
2018-12-16T19:20:48.356Z,15.45
2018-12-16T19:23:16.426Z,16.80
2018-12-16T19:25:44.703Z,17.73
2018-12-16T19:28:20.122Z,19.10
2018-12-16T19:30:47.585Z,17.02
2018-12-16T19:33:19.507Z,18.40
2018-12-16T19:35:47.557Z,17.32
2018-12-16T19:38:16.117Z,17.17
2018-12-16T19:40:44.445Z,18.30
2018-12-16T19:43:14.423Z,16.87
2018-12-16T19:45:46.327Z,16.80
2018-12-16T19:48:13.966Z,16.65
2018-12-16T19:53:29.211Z,19.30
2018-12-16T19:55:58.065Z,18.05
2018-12-16T19:58:35.480Z,17.62
2018-12-16T20:01:03.557Z,19.67
2018-12-16T20:03:37.161Z,21.27
2018-12-16T20:06:13.653Z,19.10
2018-12-16T20:08:41.318Z,17.07
2018-12-16T20:11:09.521Z,17.17
2018-12-16T20:13:37.508Z,18.05
2018-12-16T20:16:05.249Z,16.82
2018-12-16T20:18:37.077Z,18.67
2018-12-16T20:26:37.105Z,16.95
2018-12-16T20:29:17.402Z,17.62
2018-12-16T20:31:44.932Z,16.80
2018-12-16T20:34:12.801Z,18.77
2018-12-16T20:36:43.597Z,18.07
2018-12-16T20:39:11.951Z,20.20
2018-12-16T20:41:40.959Z,18.92
2018-12-16T20:44:09.051Z,21.23
2018-12-16T20:46:36.950Z,18.75
2018-12-16T20:49:04.447Z,19.40
2018-12-16T20:51:32.509Z,18.60
2018-12-16T20:54:00.141Z,18.60
2018-12-16T20:56:33.395Z,18.95
2018-12-16T20:59:00.848Z,19.90
2018-12-16T21:01:28.614Z,21.23
2018-12-16T21:04:02.879Z,19.67
2018-12-16T21:06:30.797Z,19.15
2018-12-16T21:09:04.312Z,19.70
2018-12-16T21:11:36.950Z,17.70
2018-12-16T21:14:09.766Z,18.98
2018-12-16T21:16:43.263Z,18.90
2018-12-16T21:19:10.640Z,19.52
2018-12-16T21:21:48.472Z,19.57
2018-12-16T21:24:17.558Z,20.97
2018-12-16T21:26:50.859Z,20.45
2018-12-16T21:29:18.198Z,18.95
2018-12-16T21:31:58.126Z,17.50
2018-12-16T21:34:25.538Z,17.80
2018-12-16T21:36:52.913Z,17.60
2018-12-16T21:39:26.164Z,18.60
2018-12-16T21:41:53.550Z,17.75
2018-12-16T21:44:20.956Z,17.82
2018-12-16T21:46:48.351Z,20.77
2018-12-16T21:49:22.816Z,19.48
2018-12-16T21:51:50.781Z,18.95
2018-12-16T22:02:40.002Z,20.65
2018-12-16T22:05:15.695Z,19.32
2018-12-16T22:07:43.909Z,20.68
2018-12-16T22:10:15.611Z,19.23
2018-12-16T22:12:42.979Z,19.25
2018-12-16T22:15:11.369Z,20.20
2018-12-16T22:17:38.807Z,17.98
2018-12-16T22:20:06.857Z,19.37
2018-12-16T22:22:34.235Z,18.45
2018-12-16T22:25:03.976Z,18.25
2018-12-16T22:27:31.394Z,17.95
2018-12-16T22:29:58.754Z,19.25
2018-12-16T22:32:28.252Z,19.65
2018-12-16T22:34:58.825Z,20.70
2018-12-16T22:37:26.180Z,20.00
2018-12-16T22:39:57.668Z,20.85
2018-12-16T22:42:29.926Z,21.02
2018-12-16T22:44:58.659Z,17.73
2018-12-16T22:47:26.448Z,18.75
2018-12-16T22:49:53.849Z,19.75
2018-12-16T22:52:22.257Z,18.30
2018-12-16T22:54:49.573Z,19.10
2018-12-16T22:57:20.800Z,18.82
2018-12-16T22:59:49.368Z,18.00
2018-12-16T23:02:22.773Z,20.23
2018-12-16T23:04:50.801Z,16.75
2018-12-16T23:07:21.960Z,17.37
2018-12-16T23:09:49.519Z,18.30
2018-12-16T23:12:19.509Z,19.00
2018-12-16T23:14:46.844Z,17.70
2018-12-16T23:17:19.793Z,17.73
2018-12-16T23:19:51.469Z,18.20
2018-12-16T23:22:19.108Z,19.65
2018-12-16T23:24:48.311Z,18.65
2018-12-16T23:27:15.764Z,17.05
2018-12-16T23:29:43.160Z,17.07
2018-12-16T23:32:10.524Z,19.37
2018-12-16T23:34:38.545Z,17.02
2018-12-16T23:37:06.604Z,18.07
2018-12-16T23:39:33.968Z,18.15
2018-12-16T23:42:05.330Z,18.40
2018-12-16T23:44:33.366Z,17.20
2018-12-16T23:47:01.673Z,17.10
2018-12-16T23:49:37.187Z,15.68
2018-12-16T23:52:04.528Z,17.02
2018-12-16T23:54:32.432Z,17.95
2018-12-16T23:56:59.861Z,16.52
